Time;durP1;ratioP1;P1;durP2;ratioP2;P2;SDS_P1;SDS_P2;PMS_P1;PMS_P2;Temp;Humidity;BMP_temperature;BMP_pressure;BME280_temperature;BME280_humidity;BME280_pressure;Samples;Min_cycle;Max_cycle;Signal;HPM_P1;HPM_P2
2022/03/07 00:01:33;;;;;;;6.40;4.90;;;;;;;2.26;100.00;94593.75;5075682;28;20200;-84
2022/03/07 00:04:02;;;;;;;12.57;5.10;;;;;;;2.32;100.00;94593.41;5075909;28;20507;-83
2022/03/07 00:06:30;;;;;;;11.55;6.60;;;;;;;2.45;100.00;94599.53;5075302;28;20541;-84
2022/03/07 00:08:57;;;;;;;9.87;6.53;;;;;;;2.52;100.00;94594.00;5075244;28;20201;-85
2022/03/07 00:11:24;;;;;;;8.43;5.87;;;;;;;2.58;100.00;94593.63;5075910;28;20444;-85
2022/03/07 00:13:51;;;;;;;6.17;5.10;;;;;;;2.39;100.00;94596.47;5076013;28;20487;-84
2022/03/07 00:16:18;;;;;;;9.20;5.45;;;;;;;2.27;100.00;94600.59;5076389;28;20448;-85
2022/03/07 00:18:45;;;;;;;7.50;5.82;;;;;;;2.18;100.00;94595.94;5076181;28;20213;-84
2022/03/07 00:21:12;;;;;;;9.85;6.13;;;;;;;2.28;100.00;94586.72;5075684;28;20210;-84
2022/03/07 00:23:41;;;;;;;11.80;7.10;;;;;;;1.95;100.00;94578.28;5076191;28;20692;-83
2022/03/07 00:26:08;;;;;;;11.35;6.53;;;;;;;2.01;100.00;94585.69;5076202;28;20463;-84
2022/03/07 00:28:35;;;;;;;10.52;6.32;;;;;;;2.08;100.00;94589.63;5075662;28;20189;-84
2022/03/07 00:31:03;;;;;;;8.87;5.50;;;;;;;1.84;100.00;94582.31;5075597;28;20211;-84
2022/03/07 00:33:30;;;;;;;9.48;4.95;;;;;;;1.95;100.00;94592.06;5075659;28;21092;-84
2022/03/07 00:35:56;;;;;;;9.20;6.18;;;;;;;1.98;100.00;94581.53;5076051;28;21180;-85
2022/03/07 00:38:24;;;;;;;6.37;4.90;;;;;;;2.05;100.00;94585.47;5075951;28;21051;-82
2022/03/07 00:40:52;;;;;;;10.85;7.13;;;;;;;2.09;100.00;94575.78;5040934;28;20883;-83
2022/03/07 00:43:21;;;;;;;13.02;6.10;;;;;;;2.14;100.00;94573.75;5075982;28;20202;-83
2022/03/07 00:45:48;;;;;;;15.25;7.57;;;;;;;2.10;100.00;94575.69;5073835;28;20206;-83
2022/03/07 00:48:15;;;;;;;10.80;6.47;;;;;;;2.13;100.00;94565.16;5075655;28;20619;-82
2022/03/07 00:50:44;;;;;;;16.23;7.90;;;;;;;2.24;100.00;94564.53;5075764;28;20663;-83
2022/03/07 00:53:12;;;;;;;13.10;7.65;;;;;;;2.13;100.00;94556.56;5075748;28;20202;-82
2022/03/07 00:55:40;;;;;;;12.18;7.82;;;;;;;2.31;100.00;94560.66;5075456;28;20209;-82
2022/03/07 00:58:08;;;;;;;18.65;8.20;;;;;;;2.18;100.00;94564.88;5057476;28;20230;-82
2022/03/07 01:00:36;;;;;;;10.37;7.00;;;;;;;2.09;100.00;94562.84;5074997;28;20194;-83
2022/03/07 01:03:04;;;;;;;12.70;8.20;;;;;;;1.92;100.00;94548.25;5075227;28;20950;-83
2022/03/07 01:05:31;;;;;;;11.45;7.97;;;;;;;1.75;100.00;94549.22;5075306;28;20196;-82
2022/03/07 01:07:59;;;;;;;14.05;8.80;;;;;;;1.60;100.00;94550.06;5075053;28;20197;-82
2022/03/07 01:10:26;;;;;;;12.85;7.68;;;;;;;1.70;100.00;94555.53;5075146;28;20203;-82
2022/03/07 01:19:37;;;;;;;14.23;8.07;;;;;;;1.85;100.00;94547.78;5074005;28;20247;-82
2022/03/07 01:22:04;;;;;;;15.43;8.63;;;;;;;1.79;100.00;94549.88;5074958;28;20207;-83
2022/03/07 01:24:31;;;;;;;14.27;8.90;;;;;;;1.88;100.00;94551.09;5075378;28;20209;-83
2022/03/07 01:26:58;;;;;;;11.13;7.40;;;;;;;1.97;100.00;94548.00;5056420;28;20196;-82
2022/03/07 01:29:25;;;;;;;15.20;9.68;;;;;;;2.03;100.00;94552.84;5075062;28;20206;-82
2022/03/07 01:31:52;;;;;;;13.25;8.57;;;;;;;2.17;100.00;94551.13;5073728;28;20216;-82
2022/03/07 01:34:19;;;;;;;12.20;7.55;;;;;;;2.34;100.00;94554.50;5074562;28;20249;-81
2022/03/07 01:36:47;;;;;;;15.95;9.50;;;;;;;2.40;100.00;94548.94;5074160;28;20544;-82
2022/03/07 01:39:14;;;;;;;16.63;10.82;;;;;;;2.35;100.00;94545.81;5073432;28;20207;-82
2022/03/07 01:41:43;;;;;;;11.27;7.93;;;;;;;2.24;100.00;94549.00;5074722;28;20197;-82
2022/03/07 01:44:20;;;;;;;12.67;8.10;;;;;;;2.25;100.00;94553.25;5074877;28;20474;-81
2022/03/07 01:46:48;;;;;;;17.40;7.50;;;;;;;2.26;100.00;94549.75;5074270;28;20447;-82
2022/03/07 01:49:15;;;;;;;20.03;8.60;;;;;;;2.27;100.00;94551.41;5074178;28;20446;-83
2022/03/07 01:51:43;;;;;;;14.80;8.05;;;;;;;2.29;100.00;94538.38;5074620;28;20451;-83
2022/03/07 01:54:15;;;;;;;303.33;39.00;;;;;;;2.40;100.00;94538.59;5075726;28;20220;-83
2022/03/07 01:56:45;;;;;;;8.93;6.63;;;;;;;2.33;100.00;94534.72;5076318;28;20196;-82
2022/03/07 01:59:12;;;;;;;12.32;8.85;;;;;;;2.19;100.00;94535.50;5076346;28;20444;-83
2022/03/07 02:01:40;;;;;;;12.90;7.45;;;;;;;2.10;100.00;94543.78;5076688;28;20553;-82
2022/03/07 02:04:07;;;;;;;15.45;8.48;;;;;;;1.88;100.00;94546.75;5076469;28;20232;-83
2022/03/07 02:06:34;;;;;;;13.57;8.63;;;;;;;1.93;100.00;94543.91;5074911;28;20559;-82
2022/03/07 02:09:01;;;;;;;9.30;7.13;;;;;;;1.85;100.00;94544.34;5055280;28;20202;-83
2022/03/07 02:11:30;;;;;;;9.88;7.00;;;;;;;1.82;100.00;94541.94;5073928;28;20201;-83
2022/03/07 02:13:57;;;;;;;11.38;6.97;;;;;;;1.65;100.00;94545.47;5073582;28;20202;-83
2022/03/07 02:16:24;;;;;;;11.57;8.15;;;;;;;1.74;100.00;94538.97;5073883;28;20189;-83
2022/03/07 02:18:52;;;;;;;11.75;7.93;;;;;;;1.63;100.00;94539.53;5073559;28;20188;-82
2022/03/07 02:21:19;;;;;;;12.23;7.50;;;;;;;1.59;100.00;94543.22;5071641;28;20202;-82
2022/03/07 02:23:48;;;;;;;13.30;8.60;;;;;;;1.59;100.00;94540.63;5073857;28;20455;-82
2022/03/07 02:26:16;;;;;;;13.23;7.93;;;;;;;1.57;100.00;94537.31;5073875;28;20234;-82
2022/03/07 02:28:45;;;;;;;8.50;6.90;;;;;;;1.64;100.00;94537.78;5073509;28;20205;-82
2022/03/07 02:31:16;;;;;;;14.13;6.80;;;;;;;1.53;100.00;94539.22;5073439;28;20278;-82
2022/03/07 02:33:43;;;;;;;10.45;7.30;;;;;;;1.52;100.00;94536.72;5073613;28;20203;-83
2022/03/07 02:36:10;;;;;;;12.60;7.97;;;;;;;1.55;100.00;94544.31;5073381;28;20219;-81
2022/03/07 02:38:37;;;;;;;11.45;8.25;;;;;;;1.56;100.00;94538.22;5038636;28;20656;-82
2022/03/07 02:41:05;;;;;;;13.68;8.05;;;;;;;1.67;100.00;94530.69;5073992;28;20292;-83
2022/03/07 02:50:16;;;;;;;10.43;7.78;;;;;;;1.60;100.00;94542.31;5072530;28;20242;-82
2022/03/07 02:52:42;;;;;;;12.40;7.85;;;;;;;1.59;100.00;94538.06;5039130;28;20202;-82
2022/03/07 02:55:10;;;;;;;12.63;8.45;;;;;;;1.71;100.00;94537.34;5073440;28;20236;-83
2022/03/07 02:57:39;;;;;;;14.85;8.38;;;;;;;1.87;100.00;94537.34;5073911;28;20563;-83
2022/03/07 03:00:07;;;;;;;9.07;7.65;;;;;;;1.91;100.00;94535.41;5073134;28;20190;-83
2022/03/07 03:02:34;;;;;;;11.77;6.77;;;;;;;1.72;100.00;94526.09;5073192;28;20240;-83
2022/03/07 03:05:01;;;;;;;9.52;6.65;;;;;;;1.68;100.00;94536.69;5072912;28;20767;-83
2022/03/07 03:07:28;;;;;;;8.52;6.80;;;;;;;1.76;100.00;94542.28;5072164;28;20742;-82
2022/03/07 03:09:55;;;;;;;7.60;6.03;;;;;;;1.91;100.00;94543.16;5072327;28;20688;-83
2022/03/07 03:12:24;;;;;;;11.70;7.70;;;;;;;1.76;100.00;94545.72;5072232;28;20437;-83
2022/03/07 03:14:52;;;;;;;9.75;7.10;;;;;;;1.74;100.00;94542.38;5038037;28;20224;-83
2022/03/07 03:17:34;;;;;;;14.63;7.65;;;;;;;1.86;100.00;94541.69;5072115;28;20198;-83
2022/03/07 03:20:01;;;;;;;11.52;6.80;;;;;;;1.73;100.00;94548.44;5053864;28;20294;-83
2022/03/07 03:22:28;;;;;;;13.07;7.05;;;;;;;1.69;100.00;94541.78;5072069;28;20188;-83
2022/03/07 03:24:55;;;;;;;10.80;7.38;;;;;;;1.68;100.00;94540.13;5072098;28;20201;-83
2022/03/07 03:27:22;;;;;;;9.52;6.60;;;;;;;1.84;100.00;94540.94;5037161;28;20199;-82
2022/03/07 03:29:49;;;;;;;7.85;6.47;;;;;;;1.71;100.00;94549.44;5072074;28;20630;-83
2022/03/07 03:32:18;;;;;;;8.20;6.68;;;;;;;1.67;100.00;94556.56;5072309;28;20196;-83
2022/03/07 03:41:28;;;;;;;9.30;6.45;;;;;;;1.60;100.00;94546.66;5071307;28;20227;-83
2022/03/07 03:43:55;;;;;;;9.07;6.93;;;;;;;1.71;100.00;94545.13;5071985;28;20327;-83
2022/03/07 03:46:22;;;;;;;8.50;6.30;;;;;;;1.68;100.00;94547.03;5071983;28;20643;-83
2022/03/07 03:48:50;;;;;;;6.60;5.60;;;;;;;1.63;100.00;94551.63;5071737;28;20639;-83
2022/03/07 03:51:17;;;;;;;12.93;6.07;;;;;;;1.59;100.00;94544.97;5071845;28;20215;-83
2022/03/07 03:53:44;;;;;;;10.02;7.13;;;;;;;1.75;100.00;94544.06;5036934;28;20207;-83
2022/03/07 03:56:11;;;;;;;10.80;6.88;;;;;;;1.60;100.00;94546.66;5074036;28;20691;-82
2022/03/07 03:58:38;;;;;;;8.27;5.70;;;;;;;1.63;100.00;94547.31;5075532;28;20187;-83
2022/03/07 04:01:05;;;;;;;9.30;6.55;;;;;;;1.67;100.00;94542.78;5075425;28;20198;-83
2022/03/07 04:04:38;;;;;;;9.80;6.78;;;;;;;1.80;100.00;94552.38;5091154;27;21094;-82
2022/03/07 04:07:05;;;;;;;10.80;6.25;;;;;;;1.89;100.00;94548.44;5091535;28;20206;-82
2022/03/07 04:09:32;;;;;;;8.80;6.80;;;;;;;1.59;100.00;94545.81;5091098;28;20570;-83
2022/03/07 04:11:59;;;;;;;9.65;6.38;;;;;;;1.65;100.00;94547.22;5090995;28;20207;-83
2022/03/07 04:14:26;;;;;;;13.18;7.93;;;;;;;1.74;100.00;94546.72;5090851;28;20199;-82
2022/03/07 04:16:53;;;;;;;10.02;7.43;;;;;;;1.78;100.00;94543.03;5090694;28;20190;-82
2022/03/07 04:19:20;;;;;;;12.05;8.15;;;;;;;1.94;100.00;94555.94;5090711;28;20220;-82
2022/03/07 04:21:49;;;;;;;8.23;7.20;;;;;;;1.90;100.00;94554.44;5090586;28;20292;-81
2022/03/07 04:24:16;;;;;;;11.73;8.40;;;;;;;1.96;100.00;94554.09;5090836;28;20227;-82
2022/03/07 04:26:43;;;;;;;10.20;6.68;;;;;;;1.76;100.00;94552.66;5090802;28;20197;-82
2022/03/07 04:29:11;;;;;;;10.10;7.38;;;;;;;1.98;100.00;94554.84;5090722;28;20203;-84
2022/03/07 04:31:39;;;;;;;12.60;7.80;;;;;;;1.91;100.00;94554.34;5090525;28;20563;-82
2022/03/07 04:34:07;;;;;;;11.40;7.73;;;;;;;1.78;100.00;94550.81;5090886;28;20209;-83
2022/03/07 04:36:35;;;;;;;10.25;7.03;;;;;;;1.94;100.00;94558.50;5090640;28;20506;-83
2022/03/07 04:39:04;;;;;;;9.10;6.83;;;;;;;1.72;100.00;94557.13;5054723;28;20204;-83
2022/03/07 04:41:31;;;;;;;12.30;7.37;;;;;;;1.61;100.00;94553.47;5090841;28;20437;-83
2022/03/07 04:43:58;;;;;;;12.57;7.38;;;;;;;1.59;100.00;94556.16;5090170;28;20563;-83
2022/03/07 04:46:25;;;;;;;7.85;6.38;;;;;;;1.63;100.00;94556.81;5090438;28;20188;-83
2022/03/07 04:48:52;;;;;;;8.80;7.13;;;;;;;1.72;100.00;94557.13;5090617;28;20197;-83
2022/03/07 04:51:19;;;;;;;8.32;6.43;;;;;;;1.75;100.00;94561.31;5089816;28;20223;-83
2022/03/07 04:53:46;;;;;;;8.48;6.45;;;;;;;1.68;100.00;94565.97;5090002;28;20193;-83
2022/03/07 04:56:15;;;;;;;6.18;5.57;;;;;;;1.57;100.00;94557.16;5090181;28;20217;-82
2022/03/07 04:58:42;;;;;;;9.60;6.75;;;;;;;1.61;100.00;94562.06;5090053;28;20670;-82
2022/03/07 05:01:09;;;;;;;6.70;6.10;;;;;;;1.56;100.00;94561.50;5089933;28;20249;-82
2022/03/07 05:03:36;;;;;;;7.00;5.90;;;;;;;1.70;100.00;94564.13;5089913;28;20320;-82
2022/03/07 05:06:04;;;;;;;9.00;6.47;;;;;;;1.75;100.00;94562.16;5090270;28;20195;-82
2022/03/07 05:08:31;;;;;;;10.57;6.95;;;;;;;1.73;100.00;94563.97;5090026;28;20189;-82
2022/03/07 05:10:57;;;;;;;7.25;5.82;;;;;;;1.76;100.00;94569.00;5090008;28;20188;-82
2022/03/07 05:13:26;;;;;;;13.20;6.68;;;;;;;1.89;100.00;94557.94;5089597;28;20642;-83
2022/03/07 05:15:53;;;;;;;8.50;6.32;;;;;;;1.88;100.00;94561.44;5077015;28;20194;-83
2022/03/07 05:18:20;;;;;;;9.32;7.00;;;;;;;1.95;100.00;94560.19;5076339;28;20206;-82
2022/03/07 05:20:47;;;;;;;6.82;6.13;;;;;;;1.94;100.00;94564.53;5076158;28;20197;-82
2022/03/07 05:23:14;;;;;;;9.52;6.63;;;;;;;1.93;100.00;94564.59;5075397;28;20227;-80
2022/03/07 05:25:41;;;;;;;7.72;6.53;;;;;;;2.05;100.00;94563.94;5074932;28;20206;-83
2022/03/07 05:28:08;;;;;;;10.05;7.40;;;;;;;2.12;100.00;94565.25;5040123;28;20219;-83
2022/03/07 05:30:36;;;;;;;7.65;6.85;;;;;;;2.09;100.00;94555.06;5076037;28;20242;-82
2022/03/07 05:33:03;;;;;;;7.95;7.13;;;;;;;2.13;100.00;94559.97;5075814;28;20186;-82
2022/03/07 05:35:30;;;;;;;9.98;8.90;;;;;;;2.25;100.00;94563.59;5040606;28;20202;-82
2022/03/07 05:38:00;;;;;;;21.80;12.43;;;;;;;2.36;100.00;94563.84;5040854;28;20219;-82
2022/03/07 05:40:28;;;;;;;13.47;10.87;;;;;;;2.39;100.00;94568.84;5075877;28;20197;-82
2022/03/07 05:42:55;;;;;;;8.98;7.45;;;;;;;2.43;100.00;94569.47;5076250;28;20811;-82
2022/03/07 05:45:22;;;;;;;13.50;7.77;;;;;;;2.40;100.00;94569.66;5075465;28;20305;-82
2022/03/07 05:47:50;;;;;;;10.60;8.15;;;;;;;2.54;100.00;94561.91;5075837;28;20454;-82
2022/03/07 05:50:17;;;;;;;7.80;6.80;;;;;;;2.52;100.00;94560.34;5075410;28;20673;-82
2022/03/07 05:52:44;;;;;;;11.10;6.65;;;;;;;2.30;100.00;94564.16;5075702;28;20438;-82
2022/03/07 05:55:12;;;;;;;7.80;7.00;;;;;;;2.38;100.00;94559.41;5075729;28;20284;-82
2022/03/07 05:57:39;;;;;;;11.52;8.27;;;;;;;2.29;100.00;94566.84;5075322;28;20206;-82
2022/03/07 06:00:08;;;;;;;10.02;7.35;;;;;;;2.24;100.00;94559.34;5075514;28;20199;-82
2022/03/07 06:02:35;;;;;;;8.60;6.47;;;;;;;2.33;100.00;94569.19;5075189;28;20222;-82
2022/03/07 06:05:04;;;;;;;11.40;7.40;;;;;;;2.35;100.00;94572.53;5040212;28;20315;-82
2022/03/07 06:07:40;;;;;;;9.50;6.40;;;;;;;2.33;100.00;94571.78;5075553;28;20416;-82
2022/03/07 06:10:07;;;;;;;8.00;6.22;;;;;;;2.35;100.00;94566.50;5056951;28;20216;-82
2022/03/07 06:12:34;;;;;;;11.80;6.80;;;;;;;2.33;100.00;94569.19;5075315;28;20676;-83
2022/03/07 06:15:03;;;;;;;8.13;5.95;;;;;;;2.40;100.00;94578.25;5074468;28;20209;-83
2022/03/07 06:17:31;;;;;;;8.80;6.00;;;;;;;2.45;100.00;94571.06;5074085;28;20245;-81
2022/03/07 06:19:58;;;;;;;8.02;6.63;;;;;;;2.36;100.00;94574.19;5073932;28;20946;-82
2022/03/07 06:22:26;;;;;;;7.30;6.50;;;;;;;2.36;100.00;94581.13;5074063;28;20206;-83
2022/03/07 06:24:53;;;;;;;12.50;7.20;;;;;;;2.38;100.00;94582.69;5074344;28;20494;-83
2022/03/07 06:27:20;;;;;;;6.88;6.07;;;;;;;2.25;100.00;94573.13;5073831;28;20348;-83
2022/03/07 06:29:47;;;;;;;11.00;7.03;;;;;;;2.09;100.00;94580.94;5074400;28;20187;-83
2022/03/07 06:32:14;;;;;;;6.85;5.78;;;;;;;2.06;100.00;94573.38;5074183;28;20208;-83
2022/03/07 06:34:41;;;;;;;14.50;6.68;;;;;;;2.16;100.00;94582.25;5074443;28;20205;-83
2022/03/07 06:37:08;;;;;;;9.18;7.35;;;;;;;2.24;100.00;94580.06;5074657;28;20210;-83
2022/03/07 06:39:36;;;;;;;10.70;7.13;;;;;;;1.90;100.00;94583.72;5055921;28;20207;-83
2022/03/07 06:42:04;;;;;;;9.35;6.88;;;;;;;1.82;100.00;94585.91;5074746;28;20460;-82
2022/03/07 06:44:31;;;;;;;6.50;5.68;;;;;;;1.90;100.00;94578.56;5039471;28;20312;-83
2022/03/07 06:50:38;;;;;;;9.40;6.40;;;;;;;1.85;100.00;94578.81;5064113;28;20282;-82
2022/03/07 06:53:05;;;;;;;10.00;6.47;;;;;;;1.88;100.00;94576.97;5050183;28;20457;-83
2022/03/07 06:55:34;;;;;;;9.55;6.57;;;;;;;2.05;100.00;94579.47;5036122;28;20206;-83
2022/03/07 06:58:00;;;;;;;7.65;6.45;;;;;;;2.04;100.00;94582.97;5054766;28;20201;-84
2022/03/07 07:00:28;;;;;;;13.50;8.70;;;;;;;1.98;100.00;94581.53;5054200;28;20207;-83
2022/03/07 07:02:55;;;;;;;12.65;7.85;;;;;;;1.70;100.00;94579.66;5054447;28;20246;-82
2022/03/07 07:05:23;;;;;;;15.77;10.05;;;;;;;1.84;100.00;94576.31;5053953;28;20216;-84
2022/03/07 07:07:51;;;;;;;16.95;9.00;;;;;;;1.91;100.00;94581.97;5054613;28;20529;-83
2022/03/07 07:10:19;;;;;;;10.52;6.25;;;;;;;1.94;100.00;94581.81;5054584;28;20186;-82
2022/03/07 07:12:48;;;;;;;10.48;7.88;;;;;;;2.11;100.00;94579.94;5054271;28;20239;-83
2022/03/07 07:15:15;;;;;;;8.67;7.53;;;;;;;2.33;100.00;94569.19;5054193;28;20202;-84
2022/03/07 07:21:04;;;;;;;10.93;6.90;;;;;;;2.82;100.00;94581.00;5052845;28;20463;-84
2022/03/07 07:23:31;;;;;;;11.95;7.03;;;;;;;2.70;100.00;94586.00;5053933;28;20251;-83
2022/03/07 07:25:58;;;;;;;12.23;7.07;;;;;;;3.07;100.00;94589.81;5053680;28;20191;-85
2022/03/07 07:28:26;;;;;;;12.07;6.10;;;;;;;3.07;99.51;94587.22;5053668;28;20438;-84
2022/03/07 07:30:53;;;;;;;6.77;6.13;;;;;;;3.09;98.98;94585.34;5053973;28;20448;-84
2022/03/07 07:33:20;;;;;;;6.17;5.60;;;;;;;2.95;98.18;94590.56;5054294;28;20912;-83
2022/03/07 07:35:47;;;;;;;15.90;6.73;;;;;;;2.84;97.94;94586.91;5053828;28;20440;-85
2022/03/07 07:38:14;;;;;;;9.97;7.13;;;;;;;2.93;99.28;94592.41;5053159;28;20445;-84
2022/03/07 07:40:41;;;;;;;13.93;7.17;;;;;;;3.06;99.76;94590.72;5053610;28;20540;-85
2022/03/07 07:43:09;;;;;;;7.27;6.37;;;;;;;2.70;96.93;94603.28;5053839;28;20440;-84
2022/03/07 07:45:37;;;;;;;15.70;6.67;;;;;;;2.77;97.15;94599.41;5053434;28;20480;-84
2022/03/07 07:48:05;;;;;;;8.95;6.32;;;;;;;2.70;97.46;94598.94;5053485;28;21119;-84
2022/03/07 07:50:32;;;;;;;11.93;6.20;;;;;;;2.68;98.02;94599.97;5053714;28;20203;-84
2022/03/07 07:52:59;;;;;;;9.57;7.00;;;;;;;2.88;98.42;94597.00;5053301;28;20932;-84
2022/03/07 07:55:26;;;;;;;6.60;5.57;;;;;;;3.02;97.88;94594.44;5053329;28;20813;-84
2022/03/07 08:04:38;;;;;;;10.67;5.30;;;;;;;2.84;95.91;94602.47;5050432;28;20488;-83
2022/03/07 08:07:05;;;;;;;8.50;5.93;;;;;;;3.14;97.22;94603.22;5053452;28;20446;-84
2022/03/07 08:09:32;;;;;;;7.20;5.73;;;;;;;2.95;96.30;94600.91;5053605;28;20466;-84
2022/03/07 08:11:59;;;;;;;10.07;9.00;;;;;;;3.14;96.93;94598.03;5053041;28;20426;-83
2022/03/07 08:14:25;;;;;;;10.50;7.00;;;;;;;3.26;97.07;94592.13;5053757;28;20441;-84
2022/03/07 08:16:52;;;;;;;9.13;7.20;;;;;;;3.32;96.61;94601.28;5053001;28;20445;-84
2022/03/07 08:19:19;;;;;;;8.67;5.77;;;;;;;3.36;95.20;94602.75;5053060;28;20433;-84
2022/03/07 08:21:48;;;;;;;11.40;7.80;;;;;;;3.28;95.07;94600.63;5053010;28;20429;-83
2022/03/07 08:24:15;;;;;;;12.40;6.95;;;;;;;3.28;95.69;94602.41;5034735;28;20486;-84
2022/03/07 08:30:06;;;;;;;10.23;6.75;;;;;;;3.07;95.57;94605.34;5052991;28;20481;-83
2022/03/07 08:32:33;;;;;;;10.70;6.70;;;;;;;3.14;96.02;94602.38;5052975;28;20227;-83
2022/03/07 08:35:00;;;;;;;11.30;7.10;;;;;;;3.22;96.12;94607.97;5053171;28;20902;-82
2022/03/07 08:37:29;;;;;;;14.23;10.13;;;;;;;3.31;96.17;94602.22;5052840;28;20218;-82
2022/03/07 08:39:56;;;;;;;18.17;11.37;;;;;;;3.38;96.19;94606.91;5053331;28;20438;-83
2022/03/07 08:42:23;;;;;;;11.17;8.60;;;;;;;3.46;96.48;94613.38;5053109;28;20421;-85
2022/03/07 08:44:52;;;;;;;10.80;9.07;;;;;;;3.39;95.08;94597.38;5053302;28;20480;-83
2022/03/07 08:47:19;;;;;;;11.73;9.90;;;;;;;3.46;94.65;94618.56;5053489;28;20514;-83
2022/03/07 08:49:46;;;;;;;16.60;12.10;;;;;;;3.43;94.57;94610.06;5054497;28;20430;-82
2022/03/07 08:52:15;;;;;;;9.93;7.20;;;;;;;3.30;93.96;94611.75;5056642;28;20454;-83
2022/03/07 08:54:44;;;;;;;17.10;7.93;;;;;;;3.40;94.78;94614.59;5056794;28;20446;-83
2022/03/07 08:57:12;;;;;;;9.17;7.33;;;;;;;3.50;94.62;94618.31;5056512;28;20540;-83
2022/03/07 08:59:38;;;;;;;10.80;6.77;;;;;;;3.44;93.32;94616.06;5038292;28;20444;-83
2022/03/07 09:02:09;;;;;;;8.53;7.30;;;;;;;3.48;93.65;94617.56;5056689;28;20441;-83
2022/03/07 09:04:36;;;;;;;8.33;7.27;;;;;;;3.32;92.66;94606.47;5057004;28;20543;-83
2022/03/07 09:07:04;;;;;;;7.17;6.43;;;;;;;3.45;93.23;94620.34;5056559;28;20442;-83
2022/03/07 09:09:31;;;;;;;7.97;7.13;;;;;;;3.49;93.00;94611.47;5055746;28;20450;-82
2022/03/07 09:11:59;;;;;;;9.27;6.47;;;;;;;3.63;93.01;94615.78;5055349;28;20529;-83
2022/03/07 09:14:26;;;;;;;10.43;7.20;;;;;;;3.70;92.88;94617.06;5055756;28;20951;-83
2022/03/07 09:16:53;;;;;;;8.20;7.40;;;;;;;3.66;92.80;94613.81;5054931;28;20442;-83
2022/03/07 09:19:20;;;;;;;8.20;6.53;;;;;;;3.42;92.04;94617.94;5054834;28;20940;-82
2022/03/07 09:21:47;;;;;;;10.30;7.50;;;;;;;3.59;92.44;94609.97;5055322;28;20807;-83
2022/03/07 09:24:14;;;;;;;16.90;7.77;;;;;;;3.61;92.91;94609.84;5054786;28;20485;-83
2022/03/07 09:26:42;;;;;;;11.20;7.97;;;;;;;3.74;92.62;94608.16;5055092;28;20476;-83
2022/03/07 09:29:10;;;;;;;11.03;8.17;;;;;;;3.95;93.19;94616.34;5054596;28;20454;-84
2022/03/07 09:31:37;;;;;;;6.57;5.53;;;;;;;3.98;91.85;94617.00;5035888;28;20453;-83
2022/03/07 09:34:04;;;;;;;7.43;6.33;;;;;;;4.09;92.00;94611.13;5054525;28;20537;-84
2022/03/07 09:36:31;;;;;;;8.83;6.30;;;;;;;4.10;90.99;94610.19;5054556;28;20452;-83
2022/03/07 09:38:58;;;;;;;9.20;7.10;;;;;;;4.06;91.40;94613.09;5054498;28;20434;-83
2022/03/07 09:41:27;;;;;;;7.13;6.33;;;;;;;4.06;91.08;94607.91;5054696;28;20445;-83
2022/03/07 09:43:54;;;;;;;7.10;6.37;;;;;;;4.16;90.75;94595.97;5054335;28;20460;-83
2022/03/07 09:46:23;;;;;;;8.10;6.73;;;;;;;4.24;91.33;94604.94;5054314;28;20453;-84
2022/03/07 09:48:50;;;;;;;7.47;6.70;;;;;;;4.27;90.86;94601.31;5054626;28;20453;-83
2022/03/07 09:51:16;;;;;;;15.77;9.50;;;;;;;4.17;90.84;94602.84;5054254;28;20446;-84
2022/03/07 09:53:43;;;;;;;16.83;8.20;;;;;;;3.96;90.20;94602.44;5054421;28;20438;-83
2022/03/07 09:56:10;;;;;;;7.70;6.53;;;;;;;3.85;90.85;94594.53;5054353;28;20446;-82
2022/03/07 09:58:37;;;;;;;7.73;5.97;;;;;;;4.03;92.02;94588.13;5054379;28;20446;-83
2022/03/07 10:01:13;;;;;;;14.27;6.50;;;;;;;4.17;91.84;94593.28;5055494;28;20464;-83
2022/03/07 10:03:42;;;;;;;7.40;6.20;;;;;;;4.02;90.16;94602.88;5056461;28;20903;-83
2022/03/07 10:06:14;;;;;;;10.63;7.60;;;;;;;4.19;90.47;94599.22;5054036;28;20477;-83
2022/03/07 10:08:52;;;;;;;10.50;8.03;;;;;;;4.34;90.45;94598.22;5054099;28;20449;-83
2022/03/07 10:11:19;;;;;;;12.00;7.40;;;;;;;4.33;90.53;94601.72;5053772;28;21004;-83
2022/03/07 10:13:51;;;;;;;9.47;5.97;;;;;;;4.39;89.37;94602.28;5053884;28;20477;-82
2022/03/07 10:16:20;;;;;;;7.90;6.80;;;;;;;4.47;90.03;94600.84;5053979;28;20441;-84
2022/03/07 10:18:51;;;;;;;9.60;6.90;;;;;;;4.44;90.06;94595.03;5054209;28;20438;-83
2022/03/07 10:21:23;;;;;;;8.27;6.90;;;;;;;4.54;89.81;94594.31;5053989;28;20815;-83
2022/03/07 10:23:53;;;;;;;12.97;9.30;;;;;;;4.63;89.97;94588.53;5053957;28;20445;-82
2022/03/07 10:26:21;;;;;;;10.67;8.90;;;;;;;4.60;88.74;94593.06;5053383;28;20481;-83
2022/03/07 10:28:56;;;;;;;12.50;9.40;;;;;;;4.65;88.55;94588.41;5053746;28;20438;-83
2022/03/07 10:31:24;;;;;;;11.33;9.83;;;;;;;4.63;88.27;94587.69;5034526;28;20437;-83
2022/03/07 10:34:04;;;;;;;10.57;8.43;;;;;;;4.64;90.05;94590.19;5053302;28;20442;-82
2022/03/07 10:36:33;;;;;;;12.67;10.40;;;;;;;4.69;90.43;94587.28;5053327;28;20453;-82
2022/03/07 10:38:59;;;;;;;16.03;12.70;;;;;;;4.61;89.85;94595.56;5034775;28;20448;-83
2022/03/07 10:41:37;;;;;;;19.00;15.40;;;;;;;4.45;91.41;94599.28;5053025;28;20552;-82
2022/03/07 10:44:06;;;;;;;27.07;18.87;;;;;;;4.43;90.95;94588.16;5053142;28;20522;-83
2022/03/07 10:46:33;;;;;;;20.30;15.47;;;;;;;4.48;91.72;94584.31;5053238;28;20481;-83
2022/03/07 10:49:02;;;;;;;22.00;16.83;;;;;;;4.43;91.67;94578.59;5053490;28;20446;-84
2022/03/07 10:51:30;;;;;;;19.93;13.10;;;;;;;4.35;90.28;94586.91;5053184;28;20449;-83
2022/03/07 10:53:57;;;;;;;16.77;14.03;;;;;;;4.30;91.32;94585.53;5018002;28;20626;-84
2022/03/07 10:56:24;;;;;;;18.17;15.03;;;;;;;4.31;91.53;94588.03;5052859;28;20462;-83
2022/03/07 10:58:53;;;;;;;19.40;13.83;;;;;;;4.21;90.71;94584.38;5053066;28;20445;-83
2022/03/07 11:01:29;;;;;;;17.97;14.27;;;;;;;4.15;90.89;94581.34;5052771;28;20446;-84
2022/03/07 11:03:56;;;;;;;19.23;12.90;;;;;;;4.06;92.83;94576.75;5052396;28;20477;-83
2022/03/07 11:06:26;;;;;;;22.37;15.43;;;;;;;4.03;93.19;94572.56;5052869;28;20485;-83
2022/03/07 11:08:53;;;;;;;15.40;12.27;;;;;;;3.96;93.25;94573.88;5052664;28;20460;-84
2022/03/07 11:11:21;;;;;;;18.40;13.30;;;;;;;3.92;93.60;94570.66;5052511;28;20519;-83
2022/03/07 11:13:53;;;;;;;16.90;12.60;;;;;;;3.89;93.03;94575.22;5052751;28;20849;-83
2022/03/07 11:16:21;;;;;;;19.37;12.20;;;;;;;3.83;92.49;94570.44;5054126;28;20422;-83
2022/03/07 11:18:51;;;;;;;18.43;11.10;;;;;;;3.82;92.61;94569.59;5053918;28;20465;-82
2022/03/07 11:21:18;;;;;;;16.70;14.27;;;;;;;3.80;93.57;94560.25;5035649;28;20445;-83
2022/03/07 11:23:47;;;;;;;20.90;16.73;;;;;;;3.85;94.30;94573.75;5053626;28;20426;-83
2022/03/07 11:26:16;;;;;;;28.70;18.03;;;;;;;3.87;95.02;94566.69;5053829;28;20654;-82
2022/03/07 11:28:44;;;;;;;33.50;20.60;;;;;;;3.98;95.25;94564.25;5053913;28;20488;-82
2022/03/07 11:31:19;;;;;;;31.17;22.57;;;;;;;3.99;94.07;94558.94;5053729;28;20458;-83
2022/03/07 11:33:50;;;;;;;32.87;19.23;;;;;;;4.11;94.83;94565.13;5053787;28;20450;-83
2022/03/07 11:36:19;;;;;;;40.30;25.20;;;;;;;4.19;93.72;94554.25;5053428;28;20460;-83
2022/03/07 11:38:54;;;;;;;37.00;21.50;;;;;;;4.21;92.92;94555.81;5053410;28;20429;-82
2022/03/07 11:41:26;;;;;;;39.80;23.67;;;;;;;4.15;92.56;94551.00;5053916;28;20512;-81
2022/03/07 11:43:56;;;;;;;31.77;19.87;;;;;;;4.07;92.22;94545.50;5053349;28;20434;-81
2022/03/07 11:46:24;;;;;;;27.67;17.10;;;;;;;3.97;92.44;94550.44;5053926;28;20485;-82
2022/03/07 11:48:51;;;;;;;26.00;17.63;;;;;;;3.92;92.89;94547.31;5053255;28;20487;-82
2022/03/07 11:51:20;;;;;;;25.03;18.07;;;;;;;3.91;93.01;94548.25;5053202;28;20456;-82
2022/03/07 11:53:47;;;;;;;26.80;16.47;;;;;;;3.85;92.08;94543.44;5053488;28;20785;-83
2022/03/07 11:59:37;;;;;;;24.13;15.97;;;;;;;3.76;92.76;94533.66;5052316;28;20482;-83
2022/03/07 12:02:05;;;;;;;21.40;16.90;;;;;;;3.66;92.34;94532.56;5053321;28;20441;-82
2022/03/07 12:04:40;;;;;;;25.90;18.90;;;;;;;3.66;92.54;94537.75;5053906;28;20473;-83
2022/03/07 12:07:07;;;;;;;25.17;16.30;;;;;;;3.62;93.47;94531.94;5053015;28;20947;-83
2022/03/07 12:13:06;;;;;;;27.27;16.30;;;;;;;3.55;94.49;94520.28;5052535;28;20850;-83
2022/03/07 12:15:43;;;;;;;23.17;16.30;;;;;;;3.66;95.14;94517.84;5053598;28;20432;-82
2022/03/07 12:18:10;;;;;;;25.23;17.13;;;;;;;3.70;95.06;94511.50;5053269;28;20438;-83